Time;durP1;ratioP1;P1;durP2;ratioP2;P2;SDS_P1;SDS_P2;PMS_P1;PMS_P2;Temp;Humidity;BMP_temperature;BMP_pressure;BME280_temperature;BME280_humidity;BME280_pressure;Samples;Min_cycle;Max_cycle;Signal;HPM_P1;HPM_P2
2023/10/26 00:00:31;;;;;;;0.10;0.10;;;;;;;13.56;83.60;98432.59;7355541;19;20086;-60
2023/10/26 00:02:56;;;;;;;0.10;0.10;;;;;;;13.48;83.49;98416.53;7365891;19;20384;-58
2023/10/26 00:05:22;;;;;;;0.10;0.10;;;;;;;13.59;83.91;98424.50;7359578;19;19998;-60
2023/10/26 00:07:47;;;;;;;0.10;0.10;;;;;;;13.58;83.67;98428.06;7364190;19;20010;-60
2023/10/26 00:10:13;;;;;;;0.10;0.10;;;;;;;13.59;83.71;98421.91;7359029;19;19999;-59
2023/10/26 00:12:39;;;;;;;0.10;0.10;;;;;;;13.59;83.83;98427.13;7358811;19;20260;-60
2023/10/26 00:15:05;;;;;;;0.10;0.10;;;;;;;13.56;83.78;98416.84;7351842;19;20375;-60
2023/10/26 00:17:30;;;;;;;0.00;0.00;;;;;;;13.57;83.58;98421.16;7365230;19;20053;-60
2023/10/26 00:19:56;;;;;;;0.10;0.10;;;;;;;13.57;83.79;98415.06;7363159;19;20720;-60
2023/10/26 00:22:21;;;;;;;0.10;0.10;;;;;;;13.56;83.98;98410.78;7359112;19;19999;-60
2023/10/26 00:24:47;;;;;;;0.10;0.10;;;;;;;13.56;83.90;98410.78;7363619;19;20007;-60
2023/10/26 00:27:16;;;;;;;0.10;0.10;;;;;;;13.58;84.06;98412.31;7364647;19;20017;-60
2023/10/26 00:29:42;;;;;;;0.10;0.10;;;;;;;13.45;83.95;98390.56;7362000;19;20018;-60
2023/10/26 00:32:07;;;;;;;0.10;0.10;;;;;;;13.58;84.02;98409.69;7364472;19;20038;-60
2023/10/26 00:34:33;;;;;;;0.10;0.10;;;;;;;13.53;84.01;98406.56;7363898;19;20597;-59
2023/10/26 00:36:59;;;;;;;0.10;0.10;;;;;;;13.58;83.83;98409.69;7358906;19;20442;-60
2023/10/26 00:39:24;;;;;;;0.10;0.10;;;;;;;13.59;83.67;98406.16;7364644;19;20011;-60
2023/10/26 00:41:51;;;;;;;0.10;0.10;;;;;;;13.60;83.48;98392.09;7360632;19;20412;-59
2023/10/26 00:44:16;;;;;;;0.10;0.10;;;;;;;13.62;83.76;98403.28;7367919;19;20007;-60
2023/10/26 00:46:42;;;;;;;0.10;0.10;;;;;;;13.61;83.24;98398.16;7364110;19;20417;-60
2023/10/26 00:49:10;;;;;;;0.03;0.03;;;;;;;13.60;83.26;98392.09;7356570;19;20018;-60
2023/10/26 00:51:35;;;;;;;;;;;;;;;13.64;83.08;98388.31;7361903;19;21093;-59
2023/10/26 00:54:01;;;;;;;0.10;0.10;;;;;;;13.60;83.17;98384.22;7362773;19;19915;-60
2023/10/26 00:56:27;;;;;;;0.10;0.10;;;;;;;13.57;82.79;98381.81;7364901;19;19998;-61
2023/10/26 00:58:54;;;;;;;0.10;0.10;;;;;;;13.56;82.73;98374.06;7365442;19;20009;-60
2023/10/26 01:01:20;;;;;;;0.10;0.10;;;;;;;13.49;82.48;98371.06;7361001;19;20029;-60
2023/10/26 01:03:47;;;;;;;0.20;0.20;;;;;;;13.48;82.87;98369.34;7361838;19;20006;-60
2023/10/26 01:06:13;;;;;;;0.10;0.10;;;;;;;13.44;82.50;98370.53;7357547;19;20779;-58
2023/10/26 01:08:38;;;;;;;0.10;0.10;;;;;;;13.38;82.56;98356.09;7359480;19;20006;-60
2023/10/26 01:11:04;;;;;;;0.10;0.10;;;;;;;13.39;82.78;98362.19;7361738;19;20023;-60
2023/10/26 01:13:30;;;;;;;0.10;0.10;;;;;;;13.36;82.75;98367.63;7357795;19;20018;-59
2023/10/26 01:15:56;;;;;;;0.10;0.10;;;;;;;13.30;82.73;98360.22;7356404;19;20021;-61
2023/10/26 01:18:21;;;;;;;0.10;0.10;;;;;;;13.20;82.63;98352.97;7359959;19;20007;-60
2023/10/26 01:20:47;;;;;;;0.10;0.10;;;;;;;13.19;82.45;98350.44;7361880;19;20014;-58
2023/10/26 01:23:12;;;;;;;0.10;0.10;;;;;;;13.30;82.92;98381.19;7360957;19;20013;-60
2023/10/26 01:25:38;;;;;;;0.10;0.10;;;;;;;13.23;82.95;98360.66;7361711;19;20061;-59
2023/10/26 01:28:04;;;;;;;0.10;0.10;;;;;;;13.28;83.12;98369.94;7358789;19;20035;-59
2023/10/26 01:30:31;;;;;;;0.10;0.10;;;;;;;13.27;83.07;98370.91;7353850;19;20502;-59
2023/10/26 01:32:57;;;;;;;0.10;0.10;;;;;;;13.27;83.02;98370.91;7360421;19;20040;-60
2023/10/26 01:35:22;;;;;;;0.10;0.10;;;;;;;13.28;83.12;98367.31;7362506;19;20006;-60
2023/10/26 01:37:47;;;;;;;0.10;0.10;;;;;;;13.28;83.21;98360.31;7364433;19;20013;-59
2023/10/26 01:40:13;;;;;;;0.10;0.10;;;;;;;13.29;83.50;98356.75;7360861;19;20044;-60
2023/10/26 01:42:38;;;;;;;0.10;0.10;;;;;;;13.30;83.40;98349.72;7360118;19;20026;-60
2023/10/26 01:45:04;;;;;;;0.10;0.10;;;;;;;13.30;83.73;98341.84;7358291;19;20019;-60
2023/10/26 01:47:29;;;;;;;0.10;0.10;;;;;;;13.32;83.65;98339.94;7360885;19;20038;-59
2023/10/26 01:49:55;;;;;;;0.10;0.10;;;;;;;13.31;83.51;98335.66;7339166;19;20017;-60
2023/10/26 01:52:20;;;;;;;0.10;0.10;;;;;;;13.32;83.27;98335.53;7360880;19;20039;-60
2023/10/26 01:54:46;;;;;;;0.10;0.10;;;;;;;13.33;83.26;98325.91;7359874;19;20006;-61
2023/10/26 01:57:12;;;;;;;0.08;0.08;;;;;;;13.33;83.38;98336.38;7361123;19;20012;-60
2023/10/26 01:59:37;;;;;;;0.00;0.00;;;;;;;13.29;83.21;98320.06;7355933;19;20010;-59
2023/10/26 02:02:03;;;;;;;0.13;0.13;;;;;;;13.34;83.48;98327.59;7365618;19;20490;-60
2023/10/26 02:04:28;;;;;;;0.10;0.10;;;;;;;13.34;83.50;98320.56;7363263;19;20018;-60
2023/10/26 02:06:53;;;;;;;0.10;0.10;;;;;;;13.34;83.61;98314.47;7359742;19;20011;-60
2023/10/26 02:09:19;;;;;;;0.10;0.10;;;;;;;13.34;83.43;98317.94;7369866;19;20024;-60
2023/10/26 02:11:44;;;;;;;0.10;0.10;;;;;;;13.34;83.45;98312.69;7365834;19;20022;-60
2023/10/26 02:14:09;;;;;;;0.10;0.10;;;;;;;13.35;83.53;98318.78;7353865;19;20010;-61
2023/10/26 02:16:35;;;;;;;0.10;0.10;;;;;;;13.36;83.58;98316.03;7369777;19;20022;-60
2023/10/26 02:19:00;;;;;;;0.10;0.10;;;;;;;13.36;83.30;98300.31;7368246;19;20044;-61
2023/10/26 02:21:26;;;;;;;0.10;0.10;;;;;;;13.37;83.71;98303.75;7357748;19;20010;-60
2023/10/26 02:23:51;;;;;;;0.10;0.10;;;;;;;13.36;83.42;98292.44;7368807;19;20002;-60
2023/10/26 02:26:17;;;;;;;0.10;0.10;;;;;;;13.36;83.43;98291.59;7357461;19;20010;-60
2023/10/26 02:28:43;;;;;;;0.10;0.10;;;;;;;13.35;82.91;98292.56;7367434;19;20010;-59
2023/10/26 02:31:08;;;;;;;0.10;0.10;;;;;;;13.31;82.99;98291.09;7368119;19;20018;-61
2023/10/26 02:33:33;;;;;;;0.10;0.10;;;;;;;13.30;82.84;98284.19;7368825;19;20034;-60
2023/10/26 02:35:59;;;;;;;0.10;0.10;;;;;;;13.27;82.80;98289.66;7368916;19;20022;-60
2023/10/26 02:38:24;;;;;;;0.10;0.10;;;;;;;13.22;82.91;98282.94;7369073;19;20009;-60
2023/10/26 02:40:50;;;;;;;0.10;0.10;;;;;;;13.18;82.89;98286.72;7370367;19;20102;-60
2023/10/26 02:43:16;;;;;;;0.10;0.10;;;;;;;13.14;82.46;98285.28;7366347;19;20007;-60
2023/10/26 02:45:41;;;;;;;0.10;0.10;;;;;;;13.11;82.70;98280.22;7368471;19;20018;-60
2023/10/26 02:48:07;;;;;;;0.10;0.10;;;;;;;13.04;82.41;98281.63;7373543;19;19999;-60
2023/10/26 02:50:35;;;;;;;0.10;0.10;;;;;;;12.98;82.23;98271.59;7369732;19;20014;-60
2023/10/26 02:53:00;;;;;;;0.10;0.10;;;;;;;12.98;82.76;98269.81;7369421;19;20027;-60
2023/10/26 02:55:25;;;;;;;0.00;0.00;;;;;;;12.91;82.60;98257.25;7365068;19;20022;-60
2023/10/26 02:57:51;;;;;;;0.10;0.10;;;;;;;12.90;82.74;98259.03;7366167;19;20013;-60
2023/10/26 03:00:17;;;;;;;0.00;0.00;;;;;;;12.86;82.98;98248.88;7363071;19;20547;-60
2023/10/26 03:02:43;;;;;;;0.10;0.10;;;;;;;12.85;83.25;98252.44;7364175;19;20019;-60
2023/10/26 03:05:08;;;;;;;0.10;0.10;;;;;;;12.83;83.02;98254.34;7364319;19;20015;-60
2023/10/26 03:07:34;;;;;;;0.10;0.10;;;;;;;12.73;83.19;98248.94;7356423;19;20015;-60
2023/10/26 03:09:59;;;;;;;0.10;0.10;;;;;;;12.76;83.19;98247.84;7364860;19;20795;-59
2023/10/26 03:12:25;;;;;;;0.08;0.08;;;;;;;12.77;82.96;98252.16;7364907;19;20010;-59
2023/10/26 03:14:50;;;;;;;0.10;0.10;;;;;;;12.76;83.11;98250.47;7361531;19;20515;-60
2023/10/26 03:17:16;;;;;;;0.10;0.10;;;;;;;12.58;83.16;98224.66;7361442;19;20010;-59
2023/10/26 03:19:44;;;;;;;0.10;0.10;;;;;;;12.66;83.28;98229.34;7334183;19;19999;-60
2023/10/26 03:22:10;;;;;;;0.08;0.08;;;;;;;12.66;83.13;98232.78;7362763;19;20026;-60
2023/10/26 03:24:36;;;;;;;0.10;0.10;;;;;;;12.68;83.23;98236.16;7357849;19;20060;-61
2023/10/26 03:27:01;;;;;;;0.00;0.00;;;;;;;12.66;82.90;98231.97;7369201;19;20475;-60
2023/10/26 03:29:27;;;;;;;0.10;0.10;;;;;;;12.64;82.87;98234.69;7363107;19;20006;-60
2023/10/26 03:31:52;;;;;;;0.10;0.10;;;;;;;12.63;83.22;98229.56;7371621;19;20479;-60
2023/10/26 03:34:17;;;;;;;0.10;0.10;;;;;;;12.60;82.84;98233.22;7357689;19;20038;-60
2023/10/26 03:36:43;;;;;;;0.10;0.10;;;;;;;12.57;83.04;98233.47;7372905;19;20038;-60
2023/10/26 03:39:08;;;;;;;0.10;0.10;;;;;;;12.54;83.13;98225.81;7363771;19;20017;-61
2023/10/26 03:41:33;;;;;;;0.10;0.10;;;;;;;12.51;82.98;98223.41;7361887;19;20457;-60
2023/10/26 03:43:59;;;;;;;0.00;0.00;;;;;;;12.49;82.86;98227.91;7362676;19;20002;-60
2023/10/26 03:46:24;;;;;;;0.00;0.00;;;;;;;12.45;82.99;98223.84;7365232;19;20458;-60
2023/10/26 03:48:50;;;;;;;0.10;0.10;;;;;;;12.41;82.88;98219.75;7361176;19;20006;-59
2023/10/26 03:51:16;;;;;;;0.10;0.10;;;;;;;12.37;82.69;98216.53;7365551;19;20015;-61
2023/10/26 03:53:41;;;;;;;0.10;0.10;;;;;;;12.36;82.81;98219.22;7365662;19;20470;-60
2023/10/26 03:56:07;;;;;;;0.10;0.10;;;;;;;12.33;83.00;98222.09;7362989;19;20018;-61
2023/10/26 03:58:32;;;;;;;0.10;0.10;;;;;;;12.30;82.67;98217.88;7361022;19;20010;-60
2023/10/26 04:00:57;;;;;;;0.10;0.10;;;;;;;12.28;82.82;98211.09;7218453;19;2788663;-59
2023/10/26 04:03:23;;;;;;;0.00;0.00;;;;;;;12.26;82.83;98207.72;7363861;19;20010;-59
2023/10/26 04:05:49;;;;;;;0.10;0.10;;;;;;;12.13;83.12;98194.69;7366127;19;20010;-60
2023/10/26 04:08:14;;;;;;;0.10;0.10;;;;;;;12.19;82.99;98202.94;7361759;19;20972;-60
2023/10/26 04:10:42;;;;;;;0.10;0.10;;;;;;;12.19;82.80;98204.72;7366160;19;20776;-60
2023/10/26 04:13:07;;;;;;;0.10;0.10;;;;;;;12.18;83.20;98198.66;7367398;19;20010;-58
2023/10/26 04:15:32;;;;;;;0.10;0.10;;;;;;;12.05;83.04;98181.28;7361696;19;20021;-60
2023/10/26 04:17:58;;;;;;;0.10;0.10;;;;;;;12.15;82.93;98209.31;7365467;19;20546;-60
2023/10/26 04:20:24;;;;;;;0.10;0.10;;;;;;;12.13;82.95;98203.38;7365522;19;20497;-61
2023/10/26 04:22:50;;;;;;;0.00;0.00;;;;;;;12.13;83.11;98202.53;7357320;19;20007;-60
2023/10/26 04:25:15;;;;;;;0.10;0.10;;;;;;;12.12;83.20;98200.84;7357028;19;20086;-59
2023/10/26 04:27:40;;;;;;;0.10;0.10;;;;;;;12.00;83.49;98183.38;7367247;19;20776;-59
2023/10/26 04:30:07;;;;;;;0.00;0.00;;;;;;;12.09;83.53;98188.81;7365725;19;20011;-60
2023/10/26 04:32:32;;;;;;;0.10;0.10;;;;;;;12.08;83.39;98195.00;7361780;19;20003;-60
2023/10/26 04:34:59;;;;;;;0.10;0.10;;;;;;;12.06;83.13;98181.16;7366986;19;20692;-60
2023/10/26 04:37:25;;;;;;;0.10;0.10;;;;;;;12.08;83.46;98188.94;7361737;19;20498;-59
2023/10/26 04:39:50;;;;;;;0.10;0.10;;;;;;;12.07;83.17;98177.63;7364444;19;20002;-60
2023/10/26 04:42:15;;;;;;;0.10;0.10;;;;;;;12.07;83.54;98182.84;7361885;19;20006;-60
2023/10/26 04:44:41;;;;;;;0.10;0.10;;;;;;;12.07;83.53;98182.03;7367072;19;20019;-61
2023/10/26 04:47:06;;;;;;;0.10;0.10;;;;;;;12.06;83.27;98183.78;7367334;19;20017;-60
2023/10/26 04:49:33;;;;;;;0.10;0.10;;;;;;;12.02;83.10;98178.91;7366353;19;20917;-59
2023/10/26 04:51:59;;;;;;;0.10;0.10;;;;;;;12.06;83.09;98180.31;7365350;19;20006;-59
2023/10/26 04:54:27;;;;;;;0.10;0.10;;;;;;;12.04;83.03;98183.06;7359792;19;20023;-60
2023/10/26 04:56:52;;;;;;;0.10;0.10;;;;;;;11.99;83.31;98174.69;7363536;19;20941;-59
2023/10/26 04:59:18;;;;;;;0.10;0.10;;;;;;;11.99;82.97;98179.94;7359970;19;20074;-58
2023/10/26 05:01:43;;;;;;;0.10;0.10;;;;;;;11.98;83.09;98173.03;7363504;19;20014;-60
2023/10/26 05:04:10;;;;;;;0.10;0.10;;;;;;;11.97;82.75;98181.81;7361569;19;20021;-60
2023/10/26 05:06:35;;;;;;;0.00;0.00;;;;;;;11.93;82.79;98173.34;7360808;19;20479;-59
2023/10/26 05:09:01;;;;;;;0.10;0.10;;;;;;;11.92;82.78;98178.69;7366564;19;20026;-60
2023/10/26 05:11:26;;;;;;;0.10;0.10;;;;;;;11.90;82.65;98175.31;7363591;19;20494;-60
2023/10/26 05:13:53;;;;;;;0.00;0.00;;;;;;;11.88;82.63;98174.59;7361017;19;20038;-61
2023/10/26 05:16:18;;;;;;;0.10;0.10;;;;;;;11.86;83.05;98168.63;7362468;19;20025;-61
2023/10/26 05:18:44;;;;;;;0.10;0.10;;;;;;;11.83;82.85;98174.91;7364301;19;20830;-60
2023/10/26 05:21:09;;;;;;;0.10;0.10;;;;;;;11.83;82.88;98168.84;7351489;19;20011;-60
2023/10/26 05:23:35;;;;;;;0.10;0.10;;;;;;;11.81;82.98;98168.06;7364293;19;20089;-58
2023/10/26 05:26:01;;;;;;;0.10;0.10;;;;;;;11.80;82.79;98169.00;7354528;19;20020;-60
2023/10/26 05:28:27;;;;;;;0.10;0.10;;;;;;;11.65;82.75;98152.59;7364380;19;20493;-60
2023/10/26 05:30:52;;;;;;;0.10;0.10;;;;;;;11.76;83.13;98165.78;7362673;19;20018;-60
2023/10/26 05:33:17;;;;;;;0.10;0.10;;;;;;;11.76;83.13;98162.31;7363702;19;20409;-60
2023/10/26 05:35:44;;;;;;;0.10;0.10;;;;;;;11.75;83.04;98161.47;7354656;19;20014;-59
2023/10/26 05:38:10;;;;;;;0.00;0.00;;;;;;;11.66;83.04;98141.22;7357706;19;20024;-60
2023/10/26 05:40:36;;;;;;;0.10;0.10;;;;;;;11.74;82.89;98158.97;7362615;19;20018;-59
2023/10/26 05:43:02;;;;;;;0.10;0.10;;;;;;;11.74;82.87;98154.59;7359480;19;20019;-60
2023/10/26 05:45:29;;;;;;;0.10;0.10;;;;;;;11.74;83.06;98149.34;7363666;19;20864;-60
2023/10/26 05:47:54;;;;;;;0.10;0.10;;;;;;;11.75;83.15;98155.41;7364904;19;20007;-60
2023/10/26 05:50:20;;;;;;;0.10;0.10;;;;;;;11.75;83.12;98150.19;7366495;19;20011;-59
2023/10/26 05:52:46;;;;;;;0.10;0.10;;;;;;;11.74;83.06;98148.53;7359799;19;20474;-60
2023/10/26 05:55:12;;;;;;;0.10;0.10;;;;;;;11.73;83.05;98137.22;7365395;19;20042;-59
2023/10/26 05:57:37;;;;;;;0.10;0.10;;;;;;;11.76;83.07;98136.16;7355815;19;20482;-60
2023/10/26 06:00:06;;;;;;;0.10;0.10;;;;;;;11.76;83.29;98134.41;7363510;19;20010;-60
2023/10/26 06:02:31;;;;;;;0.10;0.10;;;;;;;11.77;83.11;98138.69;7361450;19;20943;-60
2023/10/26 06:04:57;;;;;;;0.10;0.10;;;;;;;11.76;83.48;98130.94;7361105;19;20031;-59
2023/10/26 06:07:22;;;;;;;0.10;0.10;;;;;;;11.78;83.18;98124.69;7355826;19;20054;-60
2023/10/26 06:09:49;;;;;;;0.10;0.10;;;;;;;11.76;83.27;98123.97;7362177;19;20010;-60
2023/10/26 06:12:15;;;;;;;0.10;0.10;;;;;;;11.62;83.51;98092.69;7362669;19;20723;-60
2023/10/26 06:14:41;;;;;;;0.10;0.10;;;;;;;11.72;83.26;98108.59;7347358;19;20014;-60
2023/10/26 06:17:06;;;;;;;0.10;0.10;;;;;;;11.80;83.27;98124.56;7361494;19;20003;-60
2023/10/26 06:19:33;;;;;;;0.10;0.10;;;;;;;11.80;83.00;98117.56;7362135;19;20490;-60
2023/10/26 06:21:59;;;;;;;0.10;0.10;;;;;;;11.81;83.46;98121.00;7353469;19;20015;-60
2023/10/26 06:24:24;;;;;;;0.00;0.00;;;;;;;11.83;83.48;98122.63;7361699;19;20428;-60
2023/10/26 06:26:49;;;;;;;0.00;0.00;;;;;;;11.85;83.49;98119.88;7358155;19;20351;-60
2023/10/26 06:29:15;;;;;;;0.10;0.10;;;;;;;11.86;83.55;98117.19;7359484;19;20013;-60
2023/10/26 06:31:40;;;;;;;0.10;0.10;;;;;;;11.89;83.68;98126.59;7356548;19;20722;-59
2023/10/26 06:34:05;;;;;;;0.10;0.10;;;;;;;11.90;83.35;98120.41;7359059;19;20040;-59
2023/10/26 06:36:31;;;;;;;0.10;0.10;;;;;;;11.91;83.46;98119.44;7360239;19;20003;-60
2023/10/26 06:38:56;;;;;;;0.10;0.10;;;;;;;11.93;83.23;98125.44;7357978;19;20024;-60
2023/10/26 06:41:22;;;;;;;0.10;0.10;;;;;;;11.94;83.64;98121.88;7360366;19;20778;-59
2023/10/26 06:43:47;;;;;;;0.10;0.10;;;;;;;11.95;83.14;98118.31;7357860;19;20616;-60
2023/10/26 06:46:12;;;;;;;0.10;0.10;;;;;;;11.95;83.13;98115.69;7365412;19;20032;-60
2023/10/26 06:48:38;;;;;;;0.10;0.10;;;;;;;11.98;83.48;98120.72;7353680;19;20794;-59
2023/10/26 06:51:04;;;;;;;0.00;0.00;;;;;;;11.99;83.31;98117.16;7315395;19;20009;-59
2023/10/26 06:53:29;;;;;;;0.10;0.10;;;;;;;11.99;83.58;98116.31;7357828;19;20022;-60
2023/10/26 06:55:55;;;;;;;0.10;0.10;;;;;;;12.02;83.50;98119.56;7365175;19;20044;-60
2023/10/26 06:58:21;;;;;;;0.10;0.10;;;;;;;12.04;83.42;98120.28;7365050;19;20014;-60
2023/10/26 07:00:46;;;;;;;0.10;0.10;;;;;;;12.03;83.05;98121.22;7364197;19;20010;-61
2023/10/26 07:03:13;;;;;;;0.05;0.05;;;;;;;12.05;83.40;98127.19;7368102;19;20010;-60
2023/10/26 07:05:38;;;;;;;0.10;0.10;;;;;;;12.08;83.07;98126.16;7368947;19;20634;-60
2023/10/26 07:08:04;;;;;;;0.00;0.00;;;;;;;12.09;83.43;98127.81;7367127;19;20410;-60
2023/10/26 07:10:31;;;;;;;0.10;0.10;;;;;;;11.97;83.30;98113.81;7367248;19;20017;-60
2023/10/26 07:12:56;;;;;;;0.10;0.10;;;;;;;12.09;83.04;98128.66;7368340;19;20126;-60
2023/10/26 07:15:22;;;;;;;0.20;0.20;;;;;;;12.12;82.90;98127.63;7364279;19;20010;-60
2023/10/26 07:17:47;;;;;;;0.10;0.10;;;;;;;12.13;83.21;98119.66;7366374;19;21137;-59
2023/10/26 07:20:12;;;;;;;0.10;0.10;;;;;;;12.13;83.27;98119.66;7362276;19;20003;-59
2023/10/26 07:22:39;;;;;;;0.10;0.10;;;;;;;12.14;82.75;98116.09;7363004;19;20020;-59
2023/10/26 07:25:05;;;;;;;0.03;0.03;;;;;;;12.14;82.73;98116.09;7361443;19;20006;-60
2023/10/26 07:27:31;;;;;;;0.10;0.10;;;;;;;12.13;83.13;98117.03;7360490;19;20085;-60
2023/10/26 07:29:58;;;;;;;0.10;0.10;;;;;;;12.02;82.93;98095.19;7364320;19;20066;-60
2023/10/26 07:32:23;;;;;;;0.10;0.10;;;;;;;12.11;83.04;98116.28;7363414;19;20031;-60
2023/10/26 07:34:51;;;;;;;0.10;0.10;;;;;;;12.08;82.51;98111.28;7368238;19;20011;-60
2023/10/26 07:37:16;;;;;;;0.10;0.10;;;;;;;12.09;82.68;98123.41;7361310;19;20003;-60
2023/10/26 07:39:41;;;;;;;0.10;0.10;;;;;;;12.09;82.50;98118.19;7365566;19;20013;-60
2023/10/26 07:42:07;;;;;;;0.10;0.10;;;;;;;12.07;82.60;98114.84;7370415;19;20019;-60
2023/10/26 07:44:33;;;;;;;0.10;0.10;;;;;;;12.05;82.52;98113.28;7362399;19;20072;-60
2023/10/26 07:46:59;;;;;;;0.10;0.10;;;;;;;12.06;82.53;98121.00;7361609;19;20375;-60
2023/10/26 07:49:24;;;;;;;0.10;0.10;;;;;;;12.06;82.62;98118.38;7339067;19;20015;-60
2023/10/26 07:51:50;;;;;;;0.10;0.10;;;;;;;12.07;82.79;98114.84;7360566;19;20020;-60
2023/10/26 07:54:17;;;;;;;0.10;0.10;;;;;;;12.08;82.91;98121.75;7367440;19;20007;-60
2023/10/26 07:56:43;;;;;;;0.00;0.00;;;;;;;12.09;82.83;98119.97;7366969;19;20018;-60
2023/10/26 07:59:08;;;;;;;0.10;0.10;;;;;;;12.12;82.81;98123.22;7365033;19;20779;-60
2023/10/26 08:01:33;;;;;;;0.00;0.00;;;;;;;12.13;82.98;98119.66;7354492;19;20031;-60
2023/10/26 08:03:59;;;;;;;0.10;0.10;;;;;;;12.07;82.71;98109.63;7363271;19;20707;-58
2023/10/26 08:06:24;;;;;;;0.10;0.10;;;;;;;12.20;83.15;98123.50;7360341;19;20035;-61
2023/10/26 08:08:51;;;;;;;0.10;0.10;;;;;;;12.24;83.13;98121.50;7366467;19;20582;-60
2023/10/26 08:11:17;;;;;;;0.10;0.10;;;;;;;12.28;83.14;98122.97;7362317;19;20570;-59
2023/10/26 08:13:43;;;;;;;0.20;0.20;;;;;;;12.34;83.22;98119.06;7363840;19;20020;-60
2023/10/26 08:16:08;;;;;;;0.10;0.10;;;;;;;12.40;83.16;98116.84;7363191;19;20014;-60
2023/10/26 08:18:35;;;;;;;0.10;0.10;;;;;;;12.43;82.76;98103.56;7363803;19;20379;-60
2023/10/26 08:21:03;;;;;;;0.10;0.10;;;;;;;12.61;82.74;98114.47;7364883;19;20030;-60
2023/10/26 08:23:32;;;;;;;0.10;0.10;;;;;;;12.70;82.46;98105.94;7357407;19;20014;-60
2023/10/26 08:26:06;;;;;;;0.10;0.10;;;;;;;12.82;82.36;98113.84;7361532;19;20025;-60
2023/10/26 08:28:31;;;;;;;0.03;0.03;;;;;;;12.82;82.06;98111.22;7363097;19;20504;-60
2023/10/26 08:30:57;;;;;;;0.10;0.10;;;;;;;12.85;82.22;98101.38;7362790;19;20017;-60
2023/10/26 08:33:22;;;;;;;0.10;0.10;;;;;;;12.94;81.99;98115.59;7365171;19;20011;-60
2023/10/26 08:35:50;;;;;;;0.00;0.00;;;;;;;13.00;82.22;98120.38;7369394;19;20476;-61
2023/10/26 08:38:16;;;;;;;0.10;0.10;;;;;;;13.01;82.00;98115.97;7370713;19;20018;-60
2023/10/26 08:40:54;;;;;;;0.10;0.10;;;;;;;13.10;82.17;98116.13;7365265;19;20015;-59
2023/10/26 08:43:22;;;;;;;0.10;0.10;;;;;;;13.09;82.05;98114.44;7363559;19;20046;-60
2023/10/26 08:45:48;;;;;;;0.10;0.10;;;;;;;13.15;81.93;98111.38;7364609;19;20017;-60
2023/10/26 08:48:18;;;;;;;0.10;0.10;;;;;;;13.24;81.84;98108.09;7366074;19;20039;-60
2023/10/26 08:50:48;;;;;;;0.10;0.10;;;;;;;13.27;82.01;98106.19;7370945;19;20078;-60
2023/10/26 08:53:14;;;;;;;0.10;0.10;;;;;;;13.32;81.77;98104.06;7360421;19;20812;-59
2023/10/26 08:55:41;;;;;;;0.05;0.05;;;;;;;13.37;81.59;98113.25;7363852;19;20010;-60
2023/10/26 08:58:07;;;;;;;0.10;0.10;;;;;;;13.42;81.53;98116.34;7362201;19;20034;-61
2023/10/26 09:00:34;;;;;;;0.10;0.10;;;;;;;13.46;81.58;98106.47;7359948;19;20388;-61
2023/10/26 09:02:59;;;;;;;0.10;0.10;;;;;;;13.49;81.01;98114.13;7351985;19;20800;-60
2023/10/26 09:05:25;;;;;;;0.05;0.05;;;;;;;13.50;80.95;98113.16;7358251;19;20007;-61
2023/10/26 09:07:53;;;;;;;0.10;0.10;;;;;;;13.53;81.07;98117.31;7361914;19;20345;-60
2023/10/26 09:10:32;;;;;;;0.10;0.10;;;;;;;13.57;81.59;98108.28;7354169;19;20010;-60
2023/10/26 09:13:04;;;;;;;0.10;0.10;;;;;;;13.61;81.22;98114.97;7363243;19;20471;-59
2023/10/26 09:15:30;;;;;;;0.10;0.10;;;;;;;13.61;81.34;98113.19;7359137;19;20029;-60
2023/10/26 09:18:00;;;;;;;0.20;0.20;;;;;;;13.67;80.82;98109.25;7358294;19;20680;-59
2023/10/26 09:20:26;;;;;;;0.10;0.10;;;;;;;13.71;80.99;98106.28;7364275;19;20010;-60
2023/10/26 09:22:52;;;;;;;0.10;0.10;;;;;;;13.80;80.73;98103.91;7366658;19;20430;-61
2023/10/26 09:25:18;;;;;;;0.10;0.10;;;;;;;13.94;81.00;98114.16;7366485;19;20066;-60
2023/10/26 09:27:45;;;;;;;0.10;0.10;;;;;;;14.14;80.66;98115.22;7360288;19;20010;-60
2023/10/26 09:30:24;;;;;;;;;;;;;;;14.47;81.70;98111.72;7362706;19;20007;-61
2023/10/26 09:32:50;;;;;;;0.10;0.10;;;;;;;14.70;79.89;98110.75;7362586;19;19918;-60
2023/10/26 09:35:31;;;;;;;0.10;0.10;;;;;;;15.11;79.80;98110.94;7363636;19;20021;-61
2023/10/26 09:37:58;;;;;;;0.10;0.10;;;;;;;15.25;78.03;98085.16;7333133;19;20202;-59
2023/10/26 09:40:25;;;;;;;0.10;0.10;;;;;;;15.73;77.21;98104.88;7357507;19;20010;-61
2023/10/26 09:42:51;;;;;;;0.10;0.10;;;;;;;16.09;76.47;98116.66;7358672;19;20046;-60
2023/10/26 09:45:20;;;;;;;0.10;0.10;;;;;;;16.38;75.92;98090.44;7359137;19;20006;-61
2023/10/26 09:47:46;;;;;;;0.10;0.10;;;;;;;16.76;75.27;98097.56;7355388;19;20022;-60
2023/10/26 09:50:13;;;;;;;0.10;0.10;;;;;;;17.11;74.55;98098.84;7360060;19;20014;-61
2023/10/26 09:52:40;;;;;;;0.10;0.10;;;;;;;17.44;73.90;98089.63;7362994;19;20386;-60
2023/10/26 09:55:12;;;;;;;0.13;0.13;;;;;;;17.85;73.79;98099.00;7358413;19;20109;-61
2023/10/26 09:57:58;;;;;;;0.10;0.10;;;;;;;18.23;74.03;98096.34;7360249;19;20086;-61
2023/10/26 10:00:32;;;;;;;0.10;0.10;;;;;;;18.58;72.84;98098.22;7360766;19;20018;-61
2023/10/26 10:03:10;;;;;;;0.10;0.10;;;;;;;18.86;73.46;98089.28;7360200;19;20014;-61
2023/10/26 10:05:47;;;;;;;0.10;0.10;;;;;;;19.09;70.59;98096.75;7361655;19;20011;-61
2023/10/26 10:08:13;;;;;;;0.10;0.10;;;;;;;19.27;69.42;98076.41;7362427;19;20015;-61
2023/10/26 10:11:13;;;;;;;0.10;0.10;;;;;;;19.81;73.00;98089.50;7368429;19;20025;-61
2023/10/26 10:13:38;;;;;;;0.10;0.10;;;;;;;19.95;69.05;98095.06;7360440;19;20387;-60
2023/10/26 10:16:04;;;;;;;0.10;0.10;;;;;;;20.17;68.61;98091.03;7361307;19;20010;-61
2023/10/26 10:18:29;;;;;;;0.10;0.10;;;;;;;20.41;68.12;98092.09;7356142;19;20010;-60
2023/10/26 10:20:55;;;;;;;0.10;0.10;;;;;;;20.62;67.72;98089.03;7362660;19;20010;-61
2023/10/26 10:23:30;;;;;;;0.10;0.10;;;;;;;20.98;69.50;98090.44;7361089;19;20010;-61
2023/10/26 10:25:56;;;;;;;0.10;0.10;;;;;;;21.09;66.70;98091.94;7362163;19;20037;-61
2023/10/26 10:28:22;;;;;;;0.13;0.13;;;;;;;21.34;66.47;98083.97;7361203;19;20542;-60
2023/10/26 10:30:59;;;;;;;0.10;0.10;;;;;;;21.69;66.95;98085.44;7368577;19;20021;-61
2023/10/26 10:33:28;;;;;;;;;;;;;;;22.07;69.80;98081.19;7370441;19;20006;-60
2023/10/26 10:36:03;;;;;;;0.10;0.10;;;;;;;22.19;65.97;98084.31;7367371;19;20752;-61
2023/10/26 10:38:29;;;;;;;0.20;0.20;;;;;;;22.31;64.25;98085.63;7366323;19;20038;-61
2023/10/26 10:40:55;;;;;;;0.10;0.10;;;;;;;22.44;64.14;98075.22;7370003;19;20045;-61
2023/10/26 10:43:37;;;;;;;0.10;0.10;;;;;;;22.73;66.29;98079.88;7366040;19;20454;-61
2023/10/26 10:46:21;;;;;;;0.10;0.10;;;;;;;22.90;66.45;98077.13;7369893;19;20036;-61
2023/10/26 10:48:59;;;;;;;0.10;0.10;;;;;;;23.09;67.17;98078.50;7368161;19;20014;-61
2023/10/26 10:51:35;;;;;;;0.10;0.10;;;;;;;23.18;66.41;98069.44;7369739;19;20042;-61
2023/10/26 10:54:03;;;;;;;0.20;0.20;;;;;;;23.26;63.83;98077.34;7367315;19;20031;-61
2023/10/26 10:56:34;;;;;;;0.10;0.10;;;;;;;23.40;64.07;98073.91;7370358;19;20781;-61
2023/10/26 10:58:59;;;;;;;0.10;0.10;;;;;;;23.58;63.79;98075.41;7361771;19;20010;-60
2023/10/26 11:01:27;;;;;;;0.10;0.10;;;;;;;23.70;63.29;98081.97;7368902;19;20029;-60
2023/10/26 11:04:02;;;;;;;0.10;0.10;;;;;;;23.94;65.52;98076.38;7363400;19;20010;-61
2023/10/26 11:06:27;;;;;;;0.10;0.10;;;;;;;23.83;63.42;98063.53;7367454;19;20010;-61
2023/10/26 11:08:53;;;;;;;0.10;0.10;;;;;;;23.86;63.46;98068.47;7363069;19;20502;-61
2023/10/26 11:11:27;;;;;;;0.10;0.10;;;;;;;24.03;65.60;98069.97;7365221;19;20039;-61
2023/10/26 11:14:09;;;;;;;0.10;0.10;;;;;;;24.06;66.25;98069.56;7365585;19;20094;-60
2023/10/26 11:16:40;;;;;;;0.10;0.10;;;;;;;23.95;64.27;98064.72;7367766;19;20010;-60
2023/10/26 11:19:06;;;;;;;0.15;0.15;;;;;;;23.98;63.83;98059.03;7367142;19;20387;-59
2023/10/26 11:21:31;;;;;;;0.10;0.10;;;;;;;24.08;64.67;98056.06;7365737;19;20011;-61
2023/10/26 11:23:57;;;;;;;0.10;0.10;;;;;;;24.24;64.14;98055.88;7367271;19;20018;-61
2023/10/26 11:26:22;;;;;;;0.10;0.10;;;;;;;24.41;63.69;98047.66;7366235;19;20083;-61
2023/10/26 11:28:48;;;;;;;0.10;0.10;;;;;;;24.57;63.79;98045.59;7367649;19;20010;-61
2023/10/26 11:31:13;;;;;;;0.10;0.10;;;;;;;24.74;63.98;98046.19;7363647;19;20006;-61